Prichard, Idaho
Current Conditions -  °F | °C
As of 8:25 PM on Thursday 27 Nov 2014 (Local Time) from KMLP Reporting Station
Light Rain Light Rain  
Wind Chill: 28°   Ceiling: 400
Heat Index: 36°   Visibility: 1.7mi
Dew Point: 36°   Wind: 12mph
Humidity: 100%   Direction: 230°SW
Pressure: 29.79"   Gusts: 32mph
Location:  47.1697°N, 115.775°W
Report Text: KMLP 280425Z AUTO 23010G28KT 200V260 1 3/4SM -RA BR OVC004 02/02 A2979 RMK AO2 PK WND 22028/0423 VIS 3/4V4 P0005 T00220022
Loading
Personal Weather Stations






























Interactive Weather Map New forecast layout! Learn more

10-Day Weather Forecast

Advertisements
Track Severe Weather on mobile